Time;durP1;ratioP1;P1;durP2;ratioP2;P2;SDS_P1;SDS_P2;PMS_P1;PMS_P2;Temp;Humidity;BMP_temperature;BMP_pressure;BME280_temperature;BME280_humidity;BME280_pressure;Samples;Min_cycle;Max_cycle;Signal;HPM_P1;HPM_P2
2023/09/13 00:01:14;;;;;;;11.40;9.10;;;;;;;14.51;100.00;97404.27;110151;1242;70603;-68
2023/09/13 00:03:47;;;;;;;11.90;8.80;;;;;;;14.49;100.00;97402.54;110207;1241;68559;-67
2023/09/13 00:06:17;;;;;;;8.70;7.80;;;;;;;14.47;100.00;97407.20;110156;1241;69312;-68
2023/09/13 00:08:48;;;;;;;9.70;8.30;;;;;;;14.47;100.00;97407.61;110114;1242;58970;-68
2023/09/13 00:11:20;;;;;;;8.50;7.60;;;;;;;14.46;100.00;97407.33;110207;1243;58867;-68
2023/09/13 00:13:52;;;;;;;9.00;7.00;;;;;;;14.44;100.00;97406.27;110173;1242;69687;-68
2023/09/13 00:16:24;;;;;;;8.30;6.70;;;;;;;14.43;100.00;97406.52;110151;1240;70038;-68
2023/09/13 00:18:55;;;;;;;9.60;7.20;;;;;;;14.40;100.00;97401.52;110106;1243;68335;-69
2023/09/13 00:21:26;;;;;;;8.00;6.70;;;;;;;14.39;100.00;97404.12;110127;1241;58891;-69
2023/09/13 00:23:57;;;;;;;9.00;7.60;;;;;;;14.36;100.00;97409.45;110191;1243;58878;-67
2023/09/13 00:26:27;;;;;;;11.80;9.70;;;;;;;14.32;100.00;97407.36;110147;1241;69653;-68
2023/09/13 00:28:58;;;;;;;10.60;9.20;;;;;;;14.28;100.00;97406.29;110155;1240;69289;-68
2023/09/13 00:31:29;;;;;;;10.20;8.40;;;;;;;14.24;100.00;97407.66;110094;1243;68316;-67
2023/09/13 00:34:00;;;;;;;10.60;8.30;;;;;;;14.20;100.00;97412.36;110190;1243;58932;-68
2023/09/13 00:36:31;;;;;;;10.20;8.30;;;;;;;14.17;100.00;97410.37;110184;1240;58878;-68
2023/09/13 00:39:04;;;;;;;9.90;8.70;;;;;;;14.14;100.00;97413.99;110121;1242;69888;-68
2023/09/13 00:41:34;;;;;;;8.50;7.20;;;;;;;14.11;100.00;97416.70;110179;1242;69099;-68
2023/09/13 00:44:05;;;;;;;8.60;7.30;;;;;;;14.10;100.00;97415.04;110147;1242;69311;-68
2023/09/13 00:46:35;;;;;;;7.80;6.80;;;;;;;14.09;100.00;97410.98;110125;1240;58942;-68
2023/09/13 00:49:07;;;;;;;8.00;7.20;;;;;;;14.07;100.00;97408.99;110200;1242;58937;-68
2023/09/13 00:51:39;;;;;;;9.10;7.20;;;;;;;14.07;100.00;97411.79;109984;1243;70439;-68
2023/09/13 00:54:10;;;;;;;9.80;7.20;;;;;;;14.07;100.00;97411.52;110010;1244;69431;-67
2023/09/13 00:56:42;;;;;;;8.40;6.00;;;;;;;14.06;100.00;97408.91;109913;1241;69278;-67
2023/09/13 00:59:15;;;;;;;7.80;6.80;;;;;;;14.05;100.00;97411.13;110055;1244;58859;-67
2023/09/13 01:01:47;;;;;;;8.00;6.60;;;;;;;14.03;100.00;97413.59;110142;1242;58883;-67
2023/09/13 01:04:19;;;;;;;8.00;7.20;;;;;;;14.01;100.00;97411.30;110151;1243;70594;-67
2023/09/13 01:06:59;;;;;;;9.10;7.40;;;;;;;13.99;100.00;97411.23;110124;1240;68489;-67
2023/09/13 01:09:34;;;;;;;10.50;9.00;;;;;;;13.98;100.00;97411.67;110128;1243;68662;-67
2023/09/13 01:12:12;;;;;;;8.10;7.30;;;;;;;13.97;100.00;97409.45;110025;1244;58926;-69
2023/09/13 01:14:44;;;;;;;9.80;7.90;;;;;;;13.98;100.00;97410.18;110202;1242;58963;-68
2023/09/13 01:17:23;;;;;;;10.90;8.60;;;;;;;13.94;100.00;97408.59;110227;1240;70617;-68
2023/09/13 01:19:58;;;;;;;8.50;7.60;;;;;;;13.87;100.00;97410.21;110211;1242;69233;-68
2023/09/13 01:22:38;;;;;;;8.40;6.90;;;;;;;13.82;100.00;97406.27;110240;1241;68330;-69
2023/09/13 01:25:27;;;;;;;8.10;7.10;;;;;;;13.78;100.00;97401.41;110206;1242;58893;-68
2023/09/13 01:28:26;;;;;;;10.20;8.30;;;;;;;13.74;100.00;97404.68;110255;1241;58841;-67
2023/09/13 01:30:58;;;;;;;9.20;8.10;;;;;;;13.70;100.00;97406.73;110256;1241;71254;-69
2023/09/13 01:33:30;;;;;;;8.60;6.70;;;;;;;13.69;100.00;97407.55;110191;1240;68402;-68
2023/09/13 01:36:04;;;;;;;8.30;6.40;;;;;;;13.68;100.00;97407.81;110154;1242;69317;-69
2023/09/13 01:38:37;;;;;;;8.80;7.20;;;;;;;13.68;100.00;97408.17;110160;1240;58957;-69
2023/09/13 01:41:32;;;;;;;9.50;7.90;;;;;;;13.67;100.00;97408.04;110203;1242;58966;-68
2023/09/13 01:44:02;;;;;;;10.00;8.10;;;;;;;13.66;100.00;97407.83;110188;1242;70457;-68
2023/09/13 01:46:42;;;;;;;10.70;8.80;;;;;;;13.62;100.00;97410.95;110186;1241;68933;-68
2023/09/13 01:49:15;;;;;;;10.50;7.60;;;;;;;13.59;100.00;97409.48;110208;1245;68668;-69
2023/09/13 01:51:48;;;;;;;8.80;7.00;;;;;;;13.55;100.00;97411.59;110190;1242;58939;-68
2023/09/13 01:54:20;;;;;;;10.30;7.70;;;;;;;13.52;100.00;97411.29;110151;1240;58935;-68
2023/09/13 01:56:51;;;;;;;7.60;6.50;;;;;;;13.49;100.00;97412.23;110142;1242;70959;-67
2023/09/13 01:59:22;;;;;;;9.30;7.40;;;;;;;13.47;100.00;97411.54;110112;1244;69315;-67
2023/09/13 02:01:53;;;;;;;7.20;6.50;;;;;;;13.46;100.00;97413.71;110124;1240;69276;-67
2023/09/13 02:04:26;;;;;;;8.60;7.40;;;;;;;13.44;100.00;97409.30;110118;1240;58958;-68
2023/09/13 02:06:59;;;;;;;9.50;7.80;;;;;;;13.43;100.00;97411.29;110155;1242;58948;-68
2023/09/13 02:09:29;;;;;;;9.10;7.50;;;;;;;13.38;100.00;97409.69;109857;1244;70903;-68
2023/09/13 02:12:00;;;;;;;8.50;6.70;;;;;;;13.32;100.00;97406.50;110163;1241;69052;-68
2023/09/13 02:14:31;;;;;;;7.10;6.40;;;;;;;13.28;100.00;97409.33;110139;1242;68539;-69
2023/09/13 02:17:03;;;;;;;9.00;6.80;;;;;;;13.23;100.00;97412.09;110130;1242;58887;-69
2023/09/13 02:19:35;;;;;;;7.80;7.00;;;;;;;13.21;100.00;97416.27;110167;1242;58867;-67
2023/09/13 02:22:06;;;;;;;7.40;6.30;;;;;;;13.19;100.00;97414.20;110117;1240;70565;-67
2023/09/13 02:24:38;;;;;;;7.70;6.10;;;;;;;13.17;100.00;97416.48;110162;1242;69059;-68
2023/09/13 02:27:07;;;;;;;8.20;6.40;;;;;;;13.17;100.00;97412.77;109851;1241;69157;-67
2023/09/13 02:29:37;;;;;;;8.40;6.00;;;;;;;13.15;100.00;97411.85;110133;1240;58928;-69
2023/09/13 02:32:11;;;;;;;8.10;6.50;;;;;;;13.15;100.00;97413.15;110120;1240;58951;-69
2023/09/13 02:34:44;;;;;;;8.00;6.80;;;;;;;13.13;100.00;97412.04;110149;1242;70605;-68
2023/09/13 02:37:14;;;;;;;9.80;6.80;;;;;;;13.11;100.00;97414.14;110172;1242;69167;-68
2023/09/13 02:39:46;;;;;;;8.10;6.70;;;;;;;13.11;100.00;97413.81;109849;1244;69556;-68
2023/09/13 02:42:17;;;;;;;8.30;6.90;;;;;;;13.08;100.00;97413.36;109977;1240;58943;-68
2023/09/13 02:44:47;;;;;;;8.50;6.60;;;;;;;13.06;100.00;97415.13;110117;1242;58937;-68
2023/09/13 02:47:17;;;;;;;;;;;;;;;13.04;100.00;97413.21;110178;1244;70929;-70
2023/09/13 02:49:50;;;;;;;7.80;6.60;;;;;;;13.00;100.00;97412.08;110112;1240;69368;-68
2023/09/13 02:52:31;;;;;;;8.90;7.00;;;;;;;12.98;100.00;97411.92;110077;1241;68406;-68
2023/09/13 02:55:07;;;;;;;8.60;6.50;;;;;;;12.95;100.00;97409.53;110157;1240;58884;-68
2023/09/13 02:57:36;;;;;;;7.20;6.40;;;;;;;12.93;100.00;97413.73;110153;1240;58908;-68
2023/09/13 03:00:06;;;;;;;9.20;6.80;;;;;;;12.90;100.00;97411.91;110145;1243;71121;-68
2023/09/13 03:02:39;;;;;;;9.70;7.60;;;;;;;12.86;100.00;97410.25;110182;1241;69577;-68
2023/09/13 03:05:09;;;;;;;8.50;7.10;;;;;;;12.83;100.00;97413.13;110109;1241;69991;-68
2023/09/13 03:07:39;;;;;;;8.10;6.70;;;;;;;12.80;100.00;97417.81;110088;1242;58946;-69
2023/09/13 03:10:10;;;;;;;8.50;6.70;;;;;;;12.76;100.00;97415.98;110119;1243;58861;-69
2023/09/13 03:12:39;;;;;;;9.10;7.20;;;;;;;12.74;100.00;97414.17;110147;1245;70640;-68
2023/09/13 03:15:10;;;;;;;8.10;6.80;;;;;;;12.74;100.00;97417.00;110115;1243;69250;-69
2023/09/13 03:17:40;;;;;;;8.90;7.90;;;;;;;12.72;100.00;97415.44;110120;1244;69304;-68
2023/09/13 03:20:12;;;;;;;10.70;7.60;;;;;;;12.72;100.00;97417.20;110203;1242;58900;-68
2023/09/13 03:22:43;;;;;;;9.10;6.90;;;;;;;12.71;100.00;97416.86;109848;1244;58824;-69
2023/09/13 03:25:14;;;;;;;7.90;6.90;;;;;;;12.72;100.00;97411.94;110116;1241;70616;-69
2023/09/13 03:27:48;;;;;;;8.70;7.40;;;;;;;12.74;100.00;97413.19;109865;1244;69587;-69
2023/09/13 03:30:18;;;;;;;8.40;6.80;;;;;;;12.78;100.00;97414.13;110143;1244;69302;-69
2023/09/13 03:32:49;;;;;;;9.90;7.40;;;;;;;12.76;100.00;97410.03;109872;1241;58896;-69
2023/09/13 03:35:19;;;;;;;8.70;6.40;;;;;;;12.73;100.00;97412.19;110146;1242;58893;-69
2023/09/13 03:37:50;;;;;;;9.10;6.10;;;;;;;12.71;100.00;97410.41;110112;1241;70657;-70
2023/09/13 03:40:19;;;;;;;7.70;6.60;;;;;;;12.70;100.00;97412.98;110122;1244;70191;-69
2023/09/13 03:42:50;;;;;;;8.30;7.10;;;;;;;12.69;100.00;97407.79;110120;1242;69215;-69
2023/09/13 03:45:23;;;;;;;8.60;6.80;;;;;;;12.70;100.00;97411.71;110146;1240;58907;-69
2023/09/13 03:47:55;;;;;;;9.40;7.20;;;;;;;12.73;100.00;97413.79;110141;1242;58879;-69
2023/09/13 03:50:26;;;;;;;8.30;7.00;;;;;;;12.73;100.00;97415.86;110165;1240;70825;-69
2023/09/13 03:52:56;;;;;;;10.10;7.40;;;;;;;12.74;100.00;97417.69;109875;1244;69631;-69
2023/09/13 03:55:26;;;;;;;9.40;7.80;;;;;;;12.77;100.00;97419.45;110149;1240;69242;-69
2023/09/13 03:57:57;;;;;;;9.00;7.00;;;;;;;12.77;100.00;97418.90;109995;1244;58855;-67
2023/09/13 04:00:27;;;;;;;10.60;8.10;;;;;;;12.77;100.00;97421.50;109855;1244;58876;-67
2023/09/13 04:02:59;;;;;;;9.10;7.30;;;;;;;12.78;100.00;97419.66;109907;1244;70182;-70
2023/09/13 04:05:29;;;;;;;8.70;6.90;;;;;;;12.75;100.00;97420.95;110203;1241;69048;-69
2023/09/13 04:07:59;;;;;;;;;;;;;;;12.73;100.00;97417.96;110181;1241;68544;-68
2023/09/13 04:10:28;;;;;;;10.60;8.90;;;;;;;12.68;100.00;97416.98;110105;1242;58825;-67
2023/09/13 04:12:58;;;;;;;8.90;7.00;;;;;;;12.66;100.00;97417.31;110164;1240;58859;-68
2023/09/13 04:15:28;;;;;;;8.40;7.10;;;;;;;12.66;100.00;97421.69;110189;1242;69770;-68
2023/09/13 04:17:58;;;;;;;9.10;6.80;;;;;;;12.67;100.00;97421.75;110022;1244;70242;-69
2023/09/13 04:20:28;;;;;;;9.10;6.90;;;;;;;12.71;100.00;97423.56;110137;1242;69130;-68
2023/09/13 04:22:58;;;;;;;8.30;6.60;;;;;;;12.77;100.00;97425.71;109934;1244;58870;-68
2023/09/13 04:25:28;;;;;;;8.10;6.70;;;;;;;12.88;100.00;97426.92;109946;1244;58873;-70
2023/09/13 04:27:58;;;;;;;8.00;6.70;;;;;;;12.98;100.00;97430.11;110158;1242;70614;-69
2023/09/13 04:30:28;;;;;;;7.20;6.40;;;;;;;13.10;100.00;97428.06;110129;1240;68392;-68
2023/09/13 04:33:02;;;;;;;7.80;6.30;;;;;;;13.27;100.00;97428.07;110169;1240;69183;-69
2023/09/13 04:35:32;;;;;;;8.40;7.50;;;;;;;13.45;100.00;97430.63;110164;1241;58956;-68
2023/09/13 04:38:02;;;;;;;;;;;;;;;13.60;100.00;97430.74;110031;1241;59283;-68
2023/09/13 04:40:33;;;;;;;10.30;7.10;;;;;;;13.71;100.00;97432.77;110158;1240;70594;-68
2023/09/13 04:43:06;;;;;;;8.60;6.90;;;;;;;13.84;100.00;97430.42;109991;1240;68586;-68
2023/09/13 04:45:37;;;;;;;10.10;6.50;;;;;;;13.98;100.00;97430.98;109987;1244;69785;-67
2023/09/13 04:48:06;;;;;;;8.70;6.90;;;;;;;14.10;100.00;97432.08;110161;1242;58865;-68
2023/09/13 04:50:36;;;;;;;7.80;6.40;;;;;;;14.18;100.00;97431.00;109850;1244;58878;-69
2023/09/13 04:53:07;;;;;;;8.30;6.70;;;;;;;14.33;100.00;97435.80;110168;1240;69760;-68
2023/09/13 04:55:37;;;;;;;7.20;6.50;;;;;;;14.51;100.00;97439.89;110153;1242;69245;-68
2023/09/13 04:58:07;;;;;;;8.40;7.00;;;;;;;14.68;100.00;97440.84;110193;1242;69166;-68
2023/09/13 05:00:36;;;;;;;8.10;7.10;;;;;;;14.93;100.00;97439.58;110142;1242;58890;-68
2023/09/13 05:03:06;;;;;;;8.00;7.20;;;;;;;15.14;100.00;97434.05;110137;1251;58929;-68
2023/09/13 05:05:36;;;;;;;7.60;6.80;;;;;;;15.21;100.00;97434.09;110166;1240;70569;-67
2023/09/13 05:08:05;;;;;;;;;;;;;;;15.44;100.00;97435.86;109988;1244;69178;-68
2023/09/13 05:10:35;;;;;;;9.50;7.70;;;;;;;15.58;100.00;97434.58;110183;1240;69307;-68
2023/09/13 05:13:05;;;;;;;9.70;8.00;;;;;;;15.75;100.00;97435.36;110145;1247;58954;-68
2023/09/13 05:15:41;;;;;;;8.90;7.80;;;;;;;15.91;100.00;97437.96;110166;1240;58910;-66
2023/09/13 05:18:11;;;;;;;8.00;7.20;;;;;;;16.11;100.00;97442.44;110170;1243;70542;-68
2023/09/13 05:20:40;;;;;;;;;;;;;;;16.33;100.00;97443.02;110208;1240;69216;-69
2023/09/13 05:23:09;;;;;;;9.20;7.10;;;;;;;16.50;100.00;97447.88;110163;1242;69293;-69
2023/09/13 05:25:45;;;;;;;9.00;6.80;;;;;;;16.76;100.00;97444.14;110176;1242;58964;-67
2023/09/13 05:28:15;;;;;;;7.90;7.10;;;;;;;16.98;100.00;97439.22;110135;1242;58875;-68
2023/09/13 05:30:51;;;;;;;8.40;7.10;;;;;;;17.38;100.00;97439.42;110177;1244;69446;-69
2023/09/13 05:33:20;;;;;;;9.20;7.90;;;;;;;17.75;100.00;97440.63;110176;1240;69778;-68
2023/09/13 05:35:50;;;;;;;9.00;8.10;;;;;;;17.96;99.29;97438.48;110158;1240;69645;-68
2023/09/13 05:38:19;;;;;;;10.80;8.00;;;;;;;18.23;97.17;97438.06;110157;1240;58931;-68
2023/09/13 05:40:49;;;;;;;10.90;8.30;;;;;;;18.39;95.63;97440.64;110202;1242;58935;-68
2023/09/13 05:43:19;;;;;;;9.90;7.70;;;;;;;18.64;94.54;97433.61;110156;1240;69472;-67
2023/09/13 05:45:48;;;;;;;9.20;7.30;;;;;;;18.91;93.67;97435.14;110166;1244;68955;-69
2023/09/13 05:48:18;;;;;;;10.60;8.70;;;;;;;18.88;90.61;97432.82;110133;1242;69415;-68
2023/09/13 05:50:47;;;;;;;12.70;9.10;;;;;;;19.01;90.91;97429.80;110167;1240;58884;-68
2023/09/13 05:53:19;;;;;;;;;;;;;;;19.12;89.84;97432.04;110192;1240;58877;-67
2023/09/13 05:55:51;;;;;;;9.10;7.90;;;;;;;19.16;89.69;97432.79;110147;1242;70553;-68
2023/09/13 05:58:20;;;;;;;11.60;8.50;;;;;;;19.37;88.53;97430.86;110190;1240;69257;-71
2023/09/13 06:00:50;;;;;;;14.50;9.40;;;;;;;19.51;88.01;97435.06;110165;1242;69874;-68
2023/09/13 06:03:20;;;;;;;9.90;8.50;;;;;;;19.71;86.62;97434.11;110150;1241;58970;-68
2023/09/13 06:05:52;;;;;;;9.10;8.00;;;;;;;20.01;85.78;97437.83;110172;1242;58869;-67
2023/09/13 06:08:21;;;;;;;13.30;8.80;;;;;;;20.20;84.82;97439.42;110151;1244;71187;-70
2023/09/13 06:10:51;;;;;;;11.00;9.50;;;;;;;20.58;85.58;97436.30;110165;1242;69225;-68
2023/09/13 06:13:19;;;;;;;11.90;8.70;;;;;;;20.68;83.00;97434.90;110116;1240;68505;-68
2023/09/13 06:15:48;;;;;;;11.80;9.20;;;;;;;20.87;81.75;97434.09;110186;1242;58911;-68
2023/09/13 06:18:18;;;;;;;10.10;8.00;;;;;;;21.04;81.24;97435.63;110158;1242;58856;-68
2023/09/13 06:20:49;;;;;;;10.60;8.30;;;;;;;21.05;80.38;97436.73;110183;1240;71139;-67
2023/09/13 06:23:33;;;;;;;12.80;8.40;;;;;;;21.06;79.00;97437.88;110161;1243;69162;-69
2023/09/13 06:26:02;;;;;;;9.60;7.70;;;;;;;21.34;77.52;97439.05;110095;1242;69938;-70
2023/09/13 06:28:32;;;;;;;8.10;7.30;;;;;;;21.65;75.99;97438.45;110131;1242;58862;-68
2023/09/13 06:31:02;;;;;;;9.00;7.10;;;;;;;22.01;74.28;97437.41;110143;1243;58864;-68
2023/09/13 06:33:33;;;;;;;8.20;6.90;;;;;;;22.38;72.14;97441.42;110202;1241;69851;-69
2023/09/13 06:36:06;;;;;;;8.10;7.00;;;;;;;22.80;71.86;97443.86;110158;1243;69706;-68
2023/09/13 06:38:36;;;;;;;8.50;6.60;;;;;;;23.09;69.85;97441.53;110188;1241;68991;-68
2023/09/13 06:41:08;;;;;;;7.30;6.30;;;;;;;23.40;68.48;97441.50;110149;1240;58879;-68
2023/09/13 06:43:38;;;;;;;8.40;6.60;;;;;;;23.64;66.79;97438.63;110141;1242;58892;-67
2023/09/13 06:46:28;;;;;;;8.80;7.00;;;;;;;23.92;67.07;97442.80;109679;1242;612632;-69
2023/09/13 06:48:59;;;;;;;8.00;7.20;;;;;;;23.78;67.19;97443.88;110183;1242;69617;-66
2023/09/13 06:51:30;;;;;;;7.30;6.50;;;;;;;23.82;66.54;97444.16;110120;1241;68543;-69
2023/09/13 06:54:03;;;;;;;7.80;6.90;;;;;;;23.88;66.70;97447.41;110165;1240;58925;-67
2023/09/13 06:56:33;;;;;;;7.00;6.30;;;;;;;24.19;65.28;97445.92;110169;1242;58926;-67
2023/09/13 06:59:07;;;;;;;8.00;6.70;;;;;;;24.33;63.25;97448.46;110175;1241;71168;-67
2023/09/13 07:01:38;;;;;;;9.40;6.70;;;;;;;24.39;63.98;97451.44;110188;1240;70063;-68
2023/09/13 07:04:28;;;;;;;7.70;6.10;;;;;;;24.79;63.97;97452.35;110141;1243;70173;-70
2023/09/13 07:07:11;;;;;;;8.70;7.30;;;;;;;25.08;61.03;97455.28;110072;1242;58960;-67
2023/09/13 07:09:42;;;;;;;8.20;7.30;;;;;;;24.89;61.42;97455.01;110173;1242;58881;-68
2023/09/13 07:12:11;;;;;;;7.00;6.20;;;;;;;25.00;60.44;97460.61;110186;1242;70657;-67
2023/09/13 07:14:40;;;;;;;7.30;6.50;;;;;;;25.00;60.15;97458.10;110135;1243;68828;-68
2023/09/13 07:17:09;;;;;;;;;;;;;;;25.14;60.27;97461.45;110169;1240;69321;-68
2023/09/13 07:19:38;;;;;;;8.70;7.20;;;;;;;25.33;59.61;97458.30;110155;1242;58942;-68
2023/09/13 07:22:07;;;;;;;8.60;7.20;;;;;;;25.27;59.06;97459.13;110134;1242;58870;-68
2023/09/13 07:24:37;;;;;;;9.00;6.20;;;;;;;25.58;59.42;97460.95;110161;1240;69620;-70
2023/09/13 07:27:07;;;;;;;7.30;6.20;;;;;;;25.85;57.52;97461.06;110174;1241;68532;-69
2023/09/13 07:29:37;;;;;;;9.50;6.80;;;;;;;26.10;57.65;97466.52;110122;1240;69241;-69
2023/09/13 07:32:08;;;;;;;9.00;7.40;;;;;;;26.09;57.24;97461.52;110163;1242;58889;-67
2023/09/13 07:34:37;;;;;;;10.90;7.10;;;;;;;25.82;57.40;97463.62;110159;1240;58937;-69
2023/09/13 07:37:07;;;;;;;7.90;6.50;;;;;;;25.72;56.52;97461.39;110100;1240;71495;-68
2023/09/13 07:39:37;;;;;;;10.60;7.20;;;;;;;25.63;57.01;97462.18;110126;1241;69229;-69
2023/09/13 07:42:06;;;;;;;6.40;5.60;;;;;;;25.55;56.71;97460.77;110131;1242;69147;-68
2023/09/13 07:44:36;;;;;;;8.10;6.20;;;;;;;25.76;57.23;97458.51;110148;1244;58959;-67
2023/09/13 07:47:05;;;;;;;10.00;6.10;;;;;;;26.07;56.35;97461.62;110137;1240;58900;-68
2023/09/13 07:49:35;;;;;;;7.50;5.80;;;;;;;26.51;55.68;97462.46;110109;1241;70283;-68
2023/09/13 07:52:06;;;;;;;7.90;5.90;;;;;;;27.31;55.48;97463.15;110125;1240;69806;-68
2023/09/13 07:54:35;;;;;;;9.90;6.20;;;;;;;28.03;54.54;97460.20;110168;1242;69313;-69
2023/09/13 07:57:04;;;;;;;7.90;6.10;;;;;;;28.36;50.84;97460.77;110116;1241;58927;-68
2023/09/13 07:59:33;;;;;;;7.90;6.40;;;;;;;28.47;49.59;97463.73;110135;1244;58892;-68
2023/09/13 08:02:03;;;;;;;7.20;5.80;;;;;;;28.43;48.35;97462.02;110167;1240;70457;-68
2023/09/13 08:04:33;;;;;;;7.90;5.70;;;;;;;28.69;49.30;97462.83;110154;1242;69829;-68
2023/09/13 08:07:03;;;;;;;6.80;5.60;;;;;;;29.00;47.23;97464.45;110137;1242;69790;-68
2023/09/13 08:09:34;;;;;;;9.10;5.20;;;;;;;29.40;48.03;97466.32;110119;1242;58885;-69
2023/09/13 08:12:04;;;;;;;8.90;5.80;;;;;;;29.93;45.56;97465.54;110132;1243;58900;-68
2023/09/13 08:14:34;;;;;;;6.40;5.80;;;;;;;30.15;44.57;97468.16;110165;1241;71161;-68
2023/09/13 08:17:03;;;;;;;9.10;6.50;;;;;;;30.61;43.78;97469.27;110147;1243;69826;-68
2023/09/13 08:19:34;;;;;;;10.40;7.10;;;;;;;30.40;42.61;97462.58;110170;1240;69849;-67
2023/09/13 08:34:48;;;;;;;6.30;5.40;;;;;;;31.23;40.67;97457.93;107414;1271;610042;-68
2023/09/13 08:37:17;;;;;;;6.60;5.40;;;;;;;30.86;39.21;97450.48;108773;1254;522408;-67
2023/09/13 08:39:46;;;;;;;7.80;5.60;;;;;;;31.12;39.68;97451.52;109328;1254;57710;-68
2023/09/13 08:42:17;;;;;;;8.30;5.10;;;;;;;31.33;38.92;97451.80;109369;1254;68074;-68
2023/09/13 08:44:48;;;;;;;7.60;5.70;;;;;;;31.57;38.80;97448.44;109344;1254;69869;-68
2023/09/13 08:47:18;;;;;;;9.30;6.30;;;;;;;31.92;36.90;97442.31;109299;1254;69853;-66
2023/09/13 08:49:49;;;;;;;8.10;5.20;;;;;;;31.60;37.84;97448.02;109248;1254;57724;-69
2023/09/13 08:52:19;;;;;;;7.20;5.00;;;;;;;31.61;38.18;97443.12;109336;1254;58061;-68
2023/09/13 08:54:49;;;;;;;9.40;5.80;;;;;;;31.42;37.89;97443.71;109335;1254;68951;-69
2023/09/13 08:57:27;;;;;;;7.60;5.10;;;;;;;31.75;37.80;97444.48;109339;1254;68692;-68
2023/09/13 08:59:56;;;;;;;6.20;4.90;;;;;;;32.09;37.71;97441.42;109389;1254;69413;-68
2023/09/13 09:02:29;;;;;;;6.40;5.70;;;;;;;32.67;37.10;97440.99;109274;1254;58082;-67
2023/09/13 09:04:59;;;;;;;9.60;6.00;;;;;;;32.87;35.55;97440.16;109305;1254;58159;-68
2023/09/13 09:07:28;;;;;;;7.10;5.40;;;;;;;32.45;35.63;97440.02;109339;1254;69740;-68
2023/09/13 09:09:59;;;;;;;5.80;4.70;;;;;;;31.63;37.69;97440.12;109361;1254;69115;-66
2023/09/13 09:12:28;;;;;;;6.20;5.30;;;;;;;32.11;37.73;97437.55;109528;1251;69290;-68
2023/09/13 09:14:58;;;;;;;5.90;4.60;;;;;;;32.48;37.25;97437.06;109360;1254;58140;-69
2023/09/13 09:17:28;;;;;;;8.70;6.20;;;;;;;32.91;35.66;97439.28;109444;1253;58109;-69
2023/09/13 09:19:59;;;;;;;6.80;4.90;;;;;;;32.60;35.50;97437.10;109281;1254;69076;-68
2023/09/13 09:22:36;;;;;;;6.70;5.40;;;;;;;32.85;36.06;97436.18;109329;1252;69126;-69
2023/09/13 09:25:13;;;;;;;8.60;5.50;;;;;;;33.16;35.26;97440.82;109565;1251;69258;-69
2023/09/13 09:27:44;;;;;;;9.30;6.00;;;;;;;32.86;35.24;97439.16;109700;1248;58140;-69
2023/09/13 09:30:14;;;;;;;7.80;5.40;;;;;;;33.29;34.73;97435.95;109760;1245;58142;-68
2023/09/13 09:32:44;;;;;;;7.10;5.60;;;;;;;33.01;35.38;97437.15;109861;1248;69711;-69
2023/09/13 09:35:15;;;;;;;7.40;5.20;;;;;;;33.32;34.84;97430.73;109897;1247;69206;-69
2023/09/13 09:37:45;;;;;;;6.40;4.40;;;;;;;33.84;34.48;97428.96;109750;1247;68411;-68
2023/09/13 09:40:15;;;;;;;6.30;4.50;;;;;;;34.41;33.03;97430.25;109747;1246;58075;-68
2023/09/13 09:42:52;;;;;;;10.20;5.50;;;;;;;35.10;32.31;97430.64;109752;1248;58035;-68
2023/09/13 09:45:22;;;;;;;9.60;6.40;;;;;;;35.21;32.11;97429.40;109788;1246;69093;-67
2023/09/13 09:47:51;;;;;;;6.30;5.30;;;;;;;35.04;31.97;97428.81;109841;1246;69324;-68
2023/09/13 09:50:21;;;;;;;6.10;4.20;;;;;;;34.90;31.98;97428.02;109827;1247;69841;-69
2023/09/13 09:52:51;;;;;;;7.60;4.90;;;;;;;35.17;31.79;97425.64;109816;1247;58117;-67
2023/09/13 09:55:21;;;;;;;7.80;5.40;;;;;;;35.37;31.73;97427.27;109765;1247;58097;-67
2023/09/13 09:57:53;;;;;;;7.40;4.80;;;;;;;35.74;31.45;97422.88;109805;1246;69623;-68
2023/09/13 10:00:22;;;;;;;6.70;4.70;;;;;;;36.12;30.85;97415.17;109719;1247;69200;-68
2023/09/13 10:02:52;;;;;;;7.30;5.20;;;;;;;36.14;30.03;97412.89;109976;1246;68971;-68
2023/09/13 10:05:22;;;;;;;7.80;4.70;;;;;;;36.24;30.19;97407.01;109771;1245;58079;-68
2023/09/13 10:07:55;;;;;;;8.10;4.70;;;;;;;36.36;30.20;97403.08;109748;1247;58787;-67
2023/09/13 10:10:33;;;;;;;7.30;4.70;;;;;;;37.10;29.84;97404.60;109721;1247;69751;-68
2023/09/13 10:13:05;;;;;;;9.50;4.80;;;;;;;36.66;30.47;97401.66;109760;1248;69959;-69
2023/09/13 10:15:36;;;;;;;6.10;4.90;;;;;;;36.50;30.29;97400.41;109885;1247;70132;-67
2023/09/13 10:18:12;;;;;;;7.20;4.90;;;;;;;35.88;30.20;97404.82;109736;1245;58169;-68
2023/09/13 10:20:44;;;;;;;4.90;4.10;;;;;;;35.08;30.66;97409.20;109801;1247;58056;-68
2023/09/13 10:23:17;;;;;;;6.30;5.00;;;;;;;35.01;31.03;97408.89;109816;1246;70340;-66
2023/09/13 10:25:47;;;;;;;5.30;3.80;;;;;;;35.62;30.64;97400.88;109781;1248;69815;-68
2023/09/13 10:28:18;;;;;;;6.60;4.90;;;;;;;35.80;31.66;97395.73;109690;1247;69651;-69
2023/09/13 10:30:50;;;;;;;8.70;4.80;;;;;;;35.87;31.03;97394.81;109774;1247;58150;-68
2023/09/13 10:33:21;;;;;;;5.90;4.40;;;;;;;36.68;30.51;97392.30;109748;1248;58098;-69
2023/09/13 10:35:58;;;;;;;8.00;5.00;;;;;;;36.81;29.39;97393.88;109898;1246;69791;-67
2023/09/13 10:38:44;;;;;;;8.80;6.00;;;;;;;36.77;28.81;97388.71;109790;1247;69780;-68
2023/09/13 10:41:17;;;;;;;8.70;4.40;;;;;;;36.35;30.12;97384.87;110236;1242;69865;-68
2023/09/13 10:43:48;;;;;;;8.70;5.10;;;;;;;36.39;29.40;97384.90;110199;1242;58086;-68
2023/09/13 10:46:19;;;;;;;5.80;4.60;;;;;;;36.84;29.14;97384.43;110239;1242;58538;-67
2023/09/13 10:48:50;;;;;;;5.50;4.20;;;;;;;37.18;27.99;97383.63;110254;1241;69837;-67
2023/09/13 10:51:20;;;;;;;6.50;4.50;;;;;;;36.88;28.32;97379.98;110153;1241;69651;-67
2023/09/13 10:53:49;;;;;;;4.90;4.00;;;;;;;36.87;28.04;97378.15;110263;1242;69906;-69
2023/09/13 10:56:19;;;;;;;5.10;4.00;;;;;;;36.58;27.86;97378.02;110279;1242;58132;-68
2023/09/13 10:58:50;;;;;;;6.60;4.20;;;;;;;36.60;29.44;97376.09;110232;1242;58066;-67
2023/09/13 11:01:21;;;;;;;9.70;5.10;;;;;;;36.81;28.99;97373.77;110278;1242;69548;-68
2023/09/13 11:03:51;;;;;;;7.50;4.60;;;;;;;37.13;29.44;97375.60;110185;1241;69875;-67
2023/09/13 11:06:23;;;;;;;5.90;4.30;;;;;;;37.13;29.26;97370.70;110212;1242;69727;-67
2023/09/13 11:08:52;;;;;;;6.10;3.80;;;;;;;37.33;29.26;97366.30;110189;1240;58097;-66
2023/09/13 11:11:22;;;;;;;6.00;3.90;;;;;;;37.75;28.38;97359.79;110262;1242;58108;-67
2023/09/13 11:13:57;;;;;;;5.30;3.90;;;;;;;38.48;27.39;97360.46;110228;1241;69335;-67
2023/09/13 11:16:27;;;;;;;4.90;3.60;;;;;;;38.66;27.23;97357.55;110268;1242;69825;-67
2023/09/13 11:19:03;;;;;;;5.90;4.00;;;;;;;39.47;26.80;97359.10;110209;1242;69370;-66
2023/09/13 11:21:47;;;;;;;5.40;3.90;;;;;;;39.40;25.11;97355.30;110234;1242;58176;-65
2023/09/13 11:24:40;;;;;;;7.30;3.80;;;;;;;38.84;25.44;97355.49;110246;1241;58034;-67
2023/09/13 11:27:14;;;;;;;10.20;5.40;;;;;;;39.07;25.40;97350.84;110209;1241;69688;-67
2023/09/13 11:29:46;;;;;;;6.40;4.50;;;;;;;39.80;24.67;97343.75;110262;1241;69661;-66
2023/09/13 11:32:17;;;;;;;6.00;4.00;;;;;;;39.44;24.98;97348.56;110215;1242;69243;-65
2023/09/13 11:34:55;;;;;;;8.00;5.00;;;;;;;39.07;24.70;97347.37;110260;1247;58099;-67
2023/09/13 11:37:26;;;;;;;6.60;4.70;;;;;;;39.06;24.09;97349.02;110283;1242;58056;-68
2023/09/13 11:40:06;;;;;;;5.60;4.10;;;;;;;39.10;24.43;97347.04;110242;1242;70355;-68
2023/09/13 11:42:41;;;;;;;5.10;3.40;;;;;;;39.20;24.00;97339.62;110317;1242;69652;-68
2023/09/13 11:45:13;;;;;;;6.40;4.70;;;;;;;39.28;23.51;97338.99;110268;1242;69873;-68
2023/09/13 11:48:04;;;;;;;4.20;3.30;;;;;;;38.98;24.10;97338.54;110267;1242;58153;-68
2023/09/13 11:50:45;;;;;;;5.40;4.50;;;;;;;38.61;23.46;97334.29;110253;1241;58089;-68
2023/09/13 11:53:27;;;;;;;5.30;4.20;;;;;;;39.07;23.94;97330.86;110257;1242;70205;-68
2023/09/13 11:55:56;;;;;;;4.80;4.00;;;;;;;39.00;23.95;97328.17;110237;1242;68254;-69